createdAt,value
2022-11-12T00:01:12.231Z,92.60
2022-11-12T00:03:40.310Z,91.20
2022-11-12T00:06:08.578Z,91.80
2022-11-12T00:08:37.439Z,91.00
2022-11-12T00:11:05.986Z,91.80
2022-11-12T00:13:34.059Z,92.60
2022-11-12T00:16:02.127Z,92.20
2022-11-12T00:18:31.463Z,91.30
2022-11-12T00:20:59.454Z,90.30
2022-11-12T00:23:27.504Z,90.80
2022-11-12T00:26:02.482Z,92.70
2022-11-12T00:28:36.385Z,92.80
2022-11-12T00:31:10.283Z,92.50
2022-11-12T00:33:42.659Z,91.70
2022-11-12T00:36:11.146Z,91.50
2022-11-12T00:38:39.188Z,90.80
2022-11-12T00:41:07.482Z,90.70
2022-11-12T00:43:35.600Z,90.70
2022-11-12T00:46:03.622Z,90.00
2022-11-12T00:48:31.603Z,88.10
2022-11-12T00:51:06.311Z,85.70
2022-11-12T00:53:34.479Z,88.40
2022-11-12T00:56:05.134Z,89.50
2022-11-12T00:58:35.094Z,91.60
2022-11-12T01:01:08.110Z,91.80
2022-11-12T01:03:36.920Z,92.00
2022-11-12T01:06:08.303Z,91.80
2022-11-12T01:08:36.605Z,91.50
2022-11-12T01:11:09.521Z,91.90
2022-11-12T01:13:43.962Z,91.70
2022-11-12T01:16:15.054Z,93.50
2022-11-12T01:18:43.261Z,93.10
2022-11-12T01:21:13.118Z,93.40
2022-11-12T01:23:42.575Z,92.80
2022-11-12T01:26:12.611Z,92.40
2022-11-12T01:28:40.987Z,90.70
2022-11-12T01:31:15.016Z,91.60
2022-11-12T01:33:44.544Z,92.20
2022-11-12T01:36:14.588Z,91.90
2022-11-12T01:38:44.060Z,90.40
2022-11-12T01:41:14.874Z,89.80
2022-11-12T01:43:42.956Z,90.70
2022-11-12T01:46:18.497Z,90.50
2022-11-12T01:48:51.456Z,91.40
2022-11-12T01:51:23.801Z,90.50
2022-11-12T01:53:57.327Z,88.70
2022-11-12T01:56:28.378Z,87.90
2022-11-12T01:59:00.265Z,85.80
2022-11-12T02:01:28.271Z,83.90
2022-11-12T02:03:57.616Z,86.10
2022-11-12T02:06:27.572Z,85.80
2022-11-12T02:08:56.452Z,83.80
2022-11-12T02:11:24.728Z,83.40
2022-11-12T02:14:01.181Z,86.30
2022-11-12T02:16:33.672Z,83.40
2022-11-12T02:19:02.329Z,84.00
2022-11-12T02:21:32.771Z,86.00
2022-11-12T02:24:02.841Z,88.40
2022-11-12T02:26:34.556Z,85.30
2022-11-12T02:29:02.915Z,90.60
2022-11-12T02:31:31.461Z,91.40
2022-11-12T02:33:59.445Z,90.20
2022-11-12T02:36:27.755Z,91.20
2022-11-12T02:38:57.364Z,92.60
2022-11-12T02:41:25.223Z,93.60
2022-11-12T02:43:53.225Z,93.40
2022-11-12T02:46:21.451Z,92.50
2022-11-12T02:48:49.461Z,92.90
2022-11-12T02:51:17.424Z,93.50
2022-11-12T02:53:45.469Z,93.00
2022-11-12T02:56:14.902Z,93.60
2022-11-12T02:58:42.901Z,92.60
2022-11-12T03:01:10.901Z,92.90
2022-11-12T03:03:38.944Z,92.20
2022-11-12T03:06:07.830Z,91.30
2022-11-12T03:08:35.936Z,92.30
2022-11-12T03:11:08.093Z,92.70
2022-11-12T03:13:37.846Z,92.20
2022-11-12T03:16:06.383Z,91.90
2022-11-12T03:18:34.992Z,92.00
2022-11-12T03:21:03.042Z,92.00
2022-11-12T03:23:31.027Z,91.80
2022-11-12T03:25:59.053Z,92.40
2022-11-12T03:28:27.486Z,93.60
2022-11-12T03:31:00.493Z,93.50
2022-11-12T03:33:28.518Z,92.70
2022-11-12T03:35:56.748Z,92.50
2022-11-12T03:38:25.201Z,92.40
2022-11-12T03:40:53.449Z,93.40
2022-11-12T03:43:21.484Z,93.50
2022-11-12T03:45:49.531Z,93.20
2022-11-12T03:48:18.953Z,91.90
2022-11-12T03:50:46.982Z,91.90
2022-11-12T03:53:14.983Z,92.60
2022-11-12T03:55:42.942Z,91.40
2022-11-12T03:58:10.934Z,92.30
2022-11-12T04:00:38.930Z,93.50
2022-11-12T04:03:06.919Z,93.80
2022-11-12T04:05:53.849Z,94.20
2022-11-12T04:08:38.993Z,92.80
2022-11-12T04:11:13.887Z,94.60
2022-11-12T04:13:42.122Z,93.80
2022-11-12T04:16:31.755Z,92.80
2022-11-12T04:19:18.486Z,94.70
2022-11-12T04:21:52.263Z,95.90
2022-11-12T04:24:40.919Z,94.70
2022-11-12T04:27:10.394Z,93.90
2022-11-12T04:29:56.141Z,94.20
2022-11-12T04:32:25.405Z,93.90
2022-11-12T04:34:54.146Z,95.10
2022-11-12T04:37:24.468Z,95.10
2022-11-12T04:39:53.115Z,96.10
2022-11-12T04:42:38.987Z,94.70
2022-11-12T04:45:08.691Z,95.20
2022-11-12T04:47:38.296Z,94.00
2022-11-12T04:50:07.715Z,93.90
2022-11-12T04:52:37.075Z,93.50
2022-11-12T04:55:05.966Z,93.30
2022-11-12T04:57:33.963Z,94.00
2022-11-12T05:00:02.011Z,94.90
2022-11-12T05:02:30.019Z,95.30
2022-11-12T05:04:58.014Z,95.70
2022-11-12T05:07:26.014Z,95.40
2022-11-12T05:09:55.463Z,95.60
2022-11-12T05:12:23.464Z,95.10
2022-11-12T05:14:51.465Z,94.40
2022-11-12T05:17:19.477Z,93.40
2022-11-12T05:19:47.494Z,93.80
2022-11-12T05:22:40.217Z,91.60
2022-11-12T05:25:04.534Z,92.20
2022-11-12T05:27:32.692Z,91.00
2022-11-12T05:30:00.655Z,90.50
2022-11-12T05:32:28.792Z,90.10
2022-11-12T05:34:56.787Z,90.70
2022-11-12T05:37:24.813Z,90.30
2022-11-12T05:39:52.823Z,90.60
2022-11-12T05:42:22.184Z,91.50
2022-11-12T05:44:50.162Z,91.50
2022-11-12T05:47:18.166Z,91.20
2022-11-12T05:49:46.122Z,92.70
2022-11-12T05:52:14.099Z,93.70
2022-11-12T05:54:42.086Z,93.80
2022-11-12T05:57:10.072Z,93.50
2022-11-12T05:59:39.540Z,92.70
2022-11-12T06:02:07.624Z,91.20
2022-11-12T06:04:35.630Z,91.70
2022-11-12T06:07:04.200Z,91.70
2022-11-12T06:09:32.362Z,92.00
2022-11-12T06:12:00.355Z,91.70
2022-11-12T06:14:28.331Z,91.90
2022-11-12T06:16:57.668Z,92.60
2022-11-12T06:19:25.647Z,93.10
2022-11-12T06:21:53.610Z,94.80
2022-11-12T06:24:21.771Z,94.80
2022-11-12T06:26:49.813Z,95.60
2022-11-12T06:29:17.825Z,95.90
2022-11-12T06:31:45.823Z,94.80
2022-11-12T06:34:15.199Z,95.60
2022-11-12T06:36:43.162Z,96.00
2022-11-12T06:39:12.157Z,96.50
2022-11-12T06:41:40.134Z,96.60
2022-11-12T06:44:08.115Z,96.30
2022-11-12T06:46:36.108Z,96.10
2022-11-12T06:49:04.143Z,95.70
2022-11-12T06:51:33.518Z,95.40
2022-11-12T06:54:01.537Z,95.00
2022-11-12T06:56:29.532Z,94.80
2022-11-12T06:58:57.508Z,94.00
2022-11-12T07:01:25.627Z,94.60
2022-11-12T07:03:54.731Z,95.10
2022-11-12T07:06:22.930Z,94.70
2022-11-12T07:08:52.372Z,94.00
2022-11-12T07:11:21.264Z,93.70
2022-11-12T07:13:49.763Z,93.10
2022-11-12T07:16:18.743Z,93.30
2022-11-12T07:18:47.755Z,94.40
2022-11-12T07:21:18.286Z,95.00
2022-11-12T07:23:47.745Z,94.00
2022-11-12T07:26:18.728Z,93.50
2022-11-12T07:28:47.098Z,92.70
2022-11-12T07:31:16.178Z,87.30
2022-11-12T07:33:44.738Z,77.50
2022-11-12T07:36:14.661Z,73.20
2022-11-12T07:38:44.162Z,65.40
2022-11-12T07:41:14.158Z,59.30
2022-11-12T07:43:46.150Z,59.30
2022-11-12T07:46:15.879Z,58.50
2022-11-12T07:48:44.964Z,57.00
2022-11-12T07:51:14.720Z,55.70
2022-11-12T07:53:43.489Z,58.10
2022-11-12T07:56:13.619Z,51.60
2022-11-12T07:58:43.195Z,41.10
2022-11-12T08:01:11.843Z,38.90
2022-11-12T08:03:39.989Z,40.80
2022-11-12T08:06:08.718Z,33.50
2022-11-12T08:08:36.740Z,43.40
2022-11-12T08:11:04.879Z,27.20
2022-11-12T08:13:32.955Z,23.70
2022-11-12T08:16:02.518Z,5.10
2022-11-12T08:18:31.842Z,9.50
2022-11-12T08:21:03.336Z,5.90
2022-11-12T08:23:31.951Z,6.90
2022-11-12T08:26:00.287Z,10.70
2022-11-12T08:28:30.445Z,1.00
2022-11-12T08:30:58.776Z,11.30
2022-11-12T08:33:28.096Z,12.60
2022-11-12T08:35:56.110Z,11.20
2022-11-12T08:38:24.321Z,7.10
2022-11-12T08:40:52.529Z,7.60
2022-11-12T08:43:20.758Z,6.60
2022-11-12T08:45:50.030Z,1.00
2022-11-12T08:48:18.020Z,1.00
2022-11-12T08:50:47.411Z,1.00
2022-11-12T08:53:15.551Z,1.00
2022-11-12T08:55:43.603Z,1.00
2022-11-12T08:58:11.796Z,1.00
2022-11-12T09:00:43.091Z,1.00
2022-11-12T09:03:15.697Z,1.00
2022-11-12T09:05:43.932Z,1.00
2022-11-12T09:08:15.599Z,1.00
2022-11-12T09:10:43.922Z,1.00
2022-11-12T09:13:11.989Z,1.00
2022-11-12T09:15:40.019Z,1.00
2022-11-12T09:18:11.890Z,1.00
2022-11-12T09:20:40.089Z,1.00
2022-11-12T09:23:10.898Z,1.00
2022-11-12T09:25:41.483Z,1.00
2022-11-12T09:28:10.893Z,1.00
2022-11-12T09:30:39.880Z,1.00
2022-11-12T09:33:07.949Z,1.00
2022-11-12T09:35:35.892Z,1.00
2022-11-12T09:38:03.862Z,1.00
2022-11-12T09:40:48.196Z,1.00
2022-11-12T09:43:23.303Z,1.00
2022-11-12T09:46:13.534Z,1.00
2022-11-12T09:48:46.622Z,1.00
2022-11-12T09:51:22.747Z,1.00
2022-11-12T09:53:56.865Z,1.00
2022-11-12T09:56:28.200Z,1.00
2022-11-12T09:58:56.324Z,1.00
2022-11-12T10:01:35.906Z,1.00
2022-11-12T10:04:22.232Z,1.00
2022-11-12T10:06:56.234Z,1.00
2022-11-12T10:09:29.550Z,1.00
2022-11-12T10:12:24.428Z,1.00
2022-11-12T10:15:39.912Z,1.00
2022-11-12T10:18:14.198Z,1.00
2022-11-12T10:20:47.373Z,1.00
2022-11-12T10:23:19.782Z,1.00
2022-11-12T10:25:50.201Z,1.00
2022-11-12T10:28:32.079Z,1.00
2022-11-12T10:31:11.274Z,1.00
2022-11-12T10:33:39.294Z,1.00
2022-11-12T10:36:21.044Z,1.00
2022-11-12T10:38:53.173Z,99.90
2022-11-12T10:41:24.366Z,99.90
2022-11-12T10:43:58.841Z,99.90
2022-11-12T10:46:29.564Z,99.90
2022-11-12T10:49:01.498Z,99.90
2022-11-12T10:51:32.641Z,99.90
2022-11-12T10:54:00.942Z,99.90
2022-11-12T10:56:31.484Z,99.90
2022-11-12T10:59:16.480Z,99.90
2022-11-12T11:01:46.176Z,99.90
2022-11-12T11:04:25.108Z,99.90
2022-11-12T11:07:01.008Z,99.90
2022-11-12T11:09:29.269Z,99.90
2022-11-12T11:11:57.462Z,99.90
2022-11-12T11:14:29.868Z,99.90
2022-11-12T11:17:00.971Z,99.90
2022-11-12T11:19:35.111Z,99.90
2022-11-12T11:22:34.318Z,99.90
2022-11-12T11:25:07.846Z,99.90
2022-11-12T11:27:42.799Z,99.90
2022-11-12T11:30:15.300Z,99.90
2022-11-12T11:32:54.811Z,99.90
2022-11-12T11:35:31.538Z,99.90
2022-11-12T11:38:17.302Z,99.90
2022-11-12T11:40:52.647Z,99.90
2022-11-12T11:43:37.397Z,99.90
2022-11-12T11:46:22.826Z,99.90
2022-11-12T11:49:07.847Z,99.90
2022-11-12T11:51:44.692Z,99.90
2022-11-12T11:54:34.971Z,99.90
2022-11-12T11:57:11.772Z,99.90
2022-11-12T11:59:54.015Z,99.90
2022-11-12T12:02:50.404Z,99.90
2022-11-12T12:05:34.715Z,99.90
2022-11-12T12:08:06.005Z,99.90
2022-11-12T12:11:07.019Z,99.90
2022-11-12T12:13:42.807Z,99.90
2022-11-12T12:16:30.019Z,99.90
2022-11-12T12:19:05.278Z,99.90
2022-11-12T12:21:38.875Z,99.90
2022-11-12T12:24:13.876Z,99.90
2022-11-12T12:26:46.306Z,99.90
2022-11-12T12:29:19.086Z,99.90
2022-11-12T12:31:52.331Z,99.90
2022-11-12T12:34:25.931Z,99.90
2022-11-12T12:37:00.807Z,99.90
2022-11-12T12:39:36.459Z,99.90
2022-11-12T12:42:10.736Z,99.90
2022-11-12T12:45:04.906Z,99.90
2022-11-12T12:47:39.359Z,99.90
2022-11-12T12:50:14.117Z,99.90
2022-11-12T12:53:02.205Z,99.90
2022-11-12T12:55:39.882Z,99.90
2022-11-12T12:58:18.428Z,99.90
2022-11-12T13:00:50.981Z,99.90
2022-11-12T13:03:54.118Z,99.90
2022-11-12T13:06:33.174Z,99.90
2022-11-12T13:09:04.846Z,99.90
2022-11-12T13:12:07.771Z,99.90
2022-11-12T13:15:11.008Z,99.90
2022-11-12T13:17:52.912Z,99.90
2022-11-12T13:20:39.304Z,99.90
2022-11-12T13:23:13.469Z,99.90
2022-11-12T13:25:41.542Z,99.90
2022-11-12T13:28:14.275Z,99.90
2022-11-12T13:31:02.612Z,99.90
2022-11-12T13:33:34.970Z,99.90
2022-11-12T13:36:33.350Z,99.90
2022-11-12T13:39:15.284Z,99.90
2022-11-12T13:42:01.246Z,99.90
2022-11-12T13:44:29.667Z,99.90
2022-11-12T13:46:57.809Z,99.90
2022-11-12T13:49:25.854Z,99.90
2022-11-12T13:51:56.604Z,99.90
2022-11-12T13:54:38.299Z,99.90
2022-11-12T13:57:31.660Z,99.90
2022-11-12T14:00:24.404Z,99.90
2022-11-12T14:02:56.355Z,99.90
2022-11-12T14:05:26.881Z,99.90
2022-11-12T14:08:25.653Z,99.90
2022-11-12T14:11:02.038Z,99.90
2022-11-12T14:13:51.236Z,99.90
2022-11-12T14:16:35.362Z,99.90
2022-11-12T14:19:25.571Z,99.90
2022-11-12T14:22:02.058Z,99.90
2022-11-12T14:24:33.285Z,99.90
2022-11-12T14:27:02.933Z,99.90
2022-11-12T14:29:35.338Z,99.90
2022-11-12T14:32:05.318Z,99.90
2022-11-12T14:34:35.072Z,99.90
2022-11-12T14:37:03.295Z,99.90
2022-11-12T14:39:31.928Z,99.90
2022-11-12T14:42:02.078Z,99.90
2022-11-12T14:44:35.341Z,99.90
2022-11-12T14:47:04.054Z,99.90
2022-11-12T14:49:44.027Z,99.90
2022-11-12T14:52:17.774Z,99.90
2022-11-12T14:54:50.462Z,99.90
2022-11-12T14:57:24.928Z,99.90
2022-11-12T14:59:52.971Z,99.90
2022-11-12T15:02:37.319Z,99.90
2022-11-12T15:05:17.536Z,99.90
2022-11-12T15:07:57.025Z,99.90
2022-11-12T15:10:35.158Z,99.90
2022-11-12T15:13:08.778Z,99.90
2022-11-12T15:15:39.304Z,99.90
2022-11-12T15:18:09.160Z,99.90
2022-11-12T15:20:37.159Z,99.90
2022-11-12T15:23:05.744Z,99.90
2022-11-12T15:25:33.840Z,99.90
2022-11-12T15:28:21.383Z,99.90
2022-11-12T15:31:01.819Z,99.90
2022-11-12T15:33:30.598Z,99.90
2022-11-12T15:35:59.717Z,99.90
2022-11-12T15:38:31.593Z,99.90
2022-11-12T15:41:00.199Z,99.90
2022-11-12T15:43:33.300Z,99.90
2022-11-12T15:46:01.492Z,99.90
2022-11-12T15:48:29.611Z,99.90
2022-11-12T15:50:57.587Z,99.90
2022-11-12T15:53:25.996Z,99.90
2022-11-12T15:55:54.330Z,1.00
2022-11-12T15:58:31.881Z,1.00
2022-11-12T16:01:00.278Z,1.00
2022-11-12T16:03:28.678Z,1.00
2022-11-12T16:05:56.951Z,1.00
2022-11-12T16:08:24.978Z,1.00
2022-11-12T16:10:53.042Z,1.00
2022-11-12T16:13:27.895Z,1.00
2022-11-12T16:15:57.587Z,1.00
2022-11-12T16:18:25.640Z,1.00
2022-11-12T16:20:53.690Z,1.00
2022-11-12T16:23:21.693Z,1.00
2022-11-12T16:25:50.047Z,1.00
2022-11-12T16:28:19.877Z,1.00
2022-11-12T16:30:50.626Z,1.00
2022-11-12T16:33:20.007Z,1.00
2022-11-12T16:35:48.024Z,1.00
2022-11-12T16:38:17.550Z,1.00
2022-11-12T16:40:46.180Z,1.00
2022-11-12T16:43:14.240Z,1.00
2022-11-12T16:45:44.257Z,1.00
2022-11-12T16:48:16.766Z,1.00
2022-11-12T16:50:46.179Z,1.00
2022-11-12T16:53:14.474Z,1.00
2022-11-12T16:55:42.673Z,1.00
2022-11-12T16:58:14.328Z,1.00
2022-11-12T17:00:42.960Z,1.00
2022-11-12T17:03:13.705Z,1.00
2022-11-12T17:05:41.826Z,1.00
2022-11-12T17:08:11.621Z,2.00
2022-11-12T17:10:39.665Z,1.00
2022-11-12T17:13:07.962Z,10.80
2022-11-12T17:15:35.959Z,1.00
2022-11-12T17:18:04.296Z,1.00
2022-11-12T17:20:33.990Z,1.10
2022-11-12T17:23:02.008Z,1.00
2022-11-12T17:25:31.391Z,3.50
2022-11-12T17:27:59.400Z,1.00
2022-11-12T17:30:27.434Z,1.00
2022-11-12T17:32:55.464Z,1.00
2022-11-12T17:35:23.450Z,1.00
2022-11-12T17:37:51.639Z,9.90
2022-11-12T17:40:19.662Z,7.70
2022-11-12T17:42:49.091Z,5.70
2022-11-12T17:45:17.169Z,6.70
2022-11-12T17:47:45.198Z,1.60
2022-11-12T17:50:13.243Z,1.00
2022-11-12T17:52:41.232Z,1.00
2022-11-12T17:55:10.026Z,1.00
2022-11-12T17:57:38.164Z,1.00
2022-11-12T18:00:09.208Z,1.10
2022-11-12T18:02:37.187Z,5.20
2022-11-12T18:05:05.932Z,5.90
2022-11-12T18:07:34.051Z,11.00
2022-11-12T18:10:02.043Z,23.10
2022-11-12T18:12:30.054Z,39.60
2022-11-12T18:14:58.049Z,42.30
2022-11-12T18:17:27.464Z,36.80
2022-11-12T18:19:55.486Z,28.70
2022-11-12T18:22:23.496Z,37.30
2022-11-12T18:24:52.752Z,31.00
2022-11-12T18:27:20.769Z,34.00
2022-11-12T18:29:49.048Z,45.20
2022-11-12T18:32:17.012Z,44.20
2022-11-12T18:34:46.383Z,40.10
2022-11-12T18:37:14.890Z,36.30
2022-11-12T18:39:43.052Z,35.80
2022-11-12T18:42:11.023Z,39.80
2022-11-12T18:44:39.085Z,39.50
2022-11-12T18:47:07.123Z,40.60
2022-11-12T18:49:35.194Z,51.40
2022-11-12T18:52:04.640Z,49.90
2022-11-12T18:54:32.694Z,38.70
2022-11-12T18:57:00.770Z,44.60
2022-11-12T18:59:30.808Z,44.80
2022-11-12T19:01:59.584Z,39.60
2022-11-12T19:04:27.639Z,37.50
2022-11-12T19:06:55.894Z,33.70
2022-11-12T19:09:25.492Z,36.80
2022-11-12T19:11:53.487Z,31.90
2022-11-12T19:14:21.650Z,38.30
2022-11-12T19:16:49.623Z,40.40
2022-11-12T19:19:18.470Z,46.00
2022-11-12T19:21:46.602Z,40.90
2022-11-12T19:24:14.656Z,40.10
2022-11-12T19:26:44.070Z,34.40
2022-11-12T19:29:12.078Z,42.50
2022-11-12T19:31:40.856Z,40.20
2022-11-12T19:34:08.970Z,44.40
2022-11-12T19:36:36.993Z,49.50
2022-11-12T19:39:05.158Z,44.40
2022-11-12T19:41:33.159Z,43.80
2022-11-12T19:44:02.646Z,57.20
2022-11-12T19:46:31.731Z,56.90
2022-11-12T19:49:00.052Z,54.20
2022-11-12T19:51:28.421Z,55.80
2022-11-12T19:53:56.506Z,59.40
2022-11-12T19:56:27.599Z,55.00
2022-11-12T19:58:55.700Z,58.40
2022-11-12T20:01:25.322Z,65.20
2022-11-12T20:03:53.837Z,60.30
2022-11-12T20:06:25.430Z,65.70
2022-11-12T20:08:53.727Z,61.60
2022-11-12T20:11:21.763Z,64.20
2022-11-12T20:13:52.834Z,60.60
2022-11-12T20:16:25.232Z,56.60
2022-11-12T20:18:56.236Z,64.10
2022-11-12T20:21:24.763Z,54.60
2022-11-12T20:23:52.823Z,59.40
2022-11-12T20:26:20.873Z,60.50
2022-11-12T20:28:48.908Z,61.70
2022-11-12T20:31:20.493Z,63.20
2022-11-12T20:33:50.567Z,61.30
2022-11-12T20:36:21.554Z,61.90
2022-11-12T20:38:50.459Z,62.60
2022-11-12T20:41:19.927Z,63.50
2022-11-12T20:43:48.348Z,64.10
2022-11-12T20:46:16.355Z,66.40
2022-11-12T20:48:44.359Z,66.20
2022-11-12T20:51:24.278Z,70.20
2022-11-12T20:53:59.256Z,62.10
2022-11-12T20:56:29.579Z,61.50
2022-11-12T20:58:58.007Z,58.00
2022-11-12T21:01:27.719Z,53.50
2022-11-12T21:03:56.003Z,54.90
2022-11-12T21:06:27.083Z,58.20
2022-11-12T21:08:59.534Z,61.20
2022-11-12T21:11:27.674Z,63.20
2022-11-12T21:13:55.835Z,67.30
2022-11-12T21:16:23.809Z,67.00
2022-11-12T21:18:51.816Z,61.20
2022-11-12T21:21:21.216Z,61.70
2022-11-12T21:23:50.336Z,62.60
2022-11-12T21:26:20.950Z,61.00
2022-11-12T21:28:50.503Z,56.50
2022-11-12T21:31:19.402Z,57.70
2022-11-12T21:33:50.350Z,58.30
2022-11-12T21:36:18.429Z,61.10
2022-11-12T21:38:46.540Z,63.70
2022-11-12T21:41:16.888Z,63.40
2022-11-12T21:43:46.822Z,57.20
2022-11-12T21:46:18.019Z,58.40
2022-11-12T21:48:49.926Z,69.20
2022-11-12T21:51:21.327Z,68.00
2022-11-12T21:53:53.575Z,76.50
2022-11-12T21:56:21.647Z,75.90
2022-11-12T21:58:51.311Z,72.50
2022-11-12T22:01:21.023Z,74.90
2022-11-12T22:03:50.530Z,74.40
2022-11-12T22:06:18.425Z,75.30
2022-11-12T22:08:46.955Z,83.30
2022-11-12T22:11:17.577Z,78.90
2022-11-12T22:13:45.663Z,74.00
2022-11-12T22:16:17.709Z,74.80
2022-11-12T22:18:48.792Z,75.10
2022-11-12T22:21:18.571Z,77.80
2022-11-12T22:23:46.856Z,78.20
2022-11-12T22:26:16.701Z,80.20
2022-11-12T22:28:44.855Z,84.90
2022-11-12T22:31:16.285Z,83.60
2022-11-12T22:33:44.332Z,88.80
2022-11-12T22:36:14.383Z,84.00
2022-11-12T22:38:43.915Z,83.60
2022-11-12T22:41:12.844Z,81.00
2022-11-12T22:43:41.037Z,81.50
2022-11-12T22:46:11.975Z,85.10
2022-11-12T22:48:41.927Z,79.40
2022-11-12T22:51:14.105Z,74.40
2022-11-12T22:53:42.280Z,73.50
2022-11-12T22:56:13.005Z,74.60
2022-11-12T22:58:42.764Z,72.60
2022-11-12T23:01:18.098Z,68.20
2022-11-12T23:03:47.581Z,70.10
2022-11-12T23:06:15.646Z,65.90
2022-11-12T23:08:44.098Z,69.30
2022-11-12T23:11:14.160Z,72.00
2022-11-12T23:13:42.860Z,73.30
2022-11-12T23:16:13.148Z,76.10
2022-11-12T23:18:41.203Z,75.20
2022-11-12T23:21:12.579Z,72.10
2022-11-12T23:23:40.620Z,76.80
2022-11-12T23:26:12.610Z,81.40
2022-11-12T23:28:40.662Z,89.40
2022-11-12T23:31:12.293Z,93.80
2022-11-12T23:33:40.531Z,95.50
2022-11-12T23:36:11.472Z,95.90
2022-11-12T23:38:39.542Z,95.10
2022-11-12T23:41:08.541Z,92.30
2022-11-12T23:43:36.514Z,90.70
2022-11-12T23:46:04.871Z,88.90
2022-11-12T23:48:33.726Z,79.20
2022-11-12T23:51:04.401Z,75.40
2022-11-12T23:53:34.786Z,77.50
2022-11-12T23:56:03.167Z,75.70
2022-11-12T23:58:32.081Z,76.50
